Dades meteomassalio
Diari Summary for Noviembre 29, 2017 Units:  Metric    English   Both
« Previous Day
Next Day »
Diari Semanal Mensual Anual Personalitzat
  Maxima: Minima: Mijana:
Temperatura: 12.2 °C -2.2 °C 5.2 °C
Rosada: 3.6 °C -6.8 °C -0.6 °C
Humitat: 76 % 51 % 67 %
Velocitat del vent: 42.6 km/h 0.0 km/h 17.5 km/h
Racha vent: 42.6 km/h - -
Vent:- - WNW
Pressio: 1015.1 hPa 1010.0 hPa -
Pluja: 0.0 mm    
Historical Graphs
 
 
Tabular Data for Noviembre 29, 2017
Time Temperature Dew Point Pressure Wind Wind Speed Wind Gust Humidity Rainfall Rate (Hourly) solar Conditions
00:04 0.0 °C -3.9 °C 1015.1 hPa Calm     75 % 0.0 mm 0.0 W/m2 CLR
00:09 0.0 °C -3.9 °C 1015.1 hPa Calm     75 % 0.0 mm 0.0 W/m2 CLR
00:14 0.0 °C -3.9 °C 1015.1 hPa Calm     75 % 0.0 mm 0.0 W/m2 CLR
00:19 0.0 °C -3.9 °C 1015.1 hPa Calm     75 % 0.0 mm 0.0 W/m2 CLR
00:24 -0.6 °C -4.4 °C 1015.1 hPa Calm     75 % 0.0 mm 0.0 W/m2 CLR
00:29 -0.6 °C -4.4 °C 1015.1 hPa Calm     75 % 0.0 mm 0.0 W/m2 CLR
00:35 0.0 °C -3.9 °C 1015.1 hPa Calm     75 % 0.0 mm 0.0 W/m2 CLR
00:39 0.0 °C -3.7 °C 1015.1 hPa Calm     76 % 0.0 mm 0.0 W/m2 CLR
00:45 0.0 °C -3.7 °C 1014.8 hPa Calm     76 % 0.0 mm 0.0 W/m2 CLR
00:50 0.0 °C -3.9 °C 1014.8 hPa Calm     75 % 0.0 mm 0.0 W/m2 CLR
00:55 0.0 °C -4.1 °C 1014.8 hPa Calm     74 % 0.0 mm 0.0 W/m2 CLR
01:04 0.0 °C -3.9 °C 1014.4 hPa Calm     75 % 0.0 mm 0.0 W/m2 CLR
01:10 0.0 °C -3.7 °C 1014.4 hPa Calm     76 % 0.0 mm 0.0 W/m2 CLR
01:15 0.0 °C -3.7 °C 1014.4 hPa Calm     76 % 0.0 mm 0.0 W/m2 CLR
01:20 0.6 °C -3.4 °C 1014.4 hPa Calm     75 % 0.0 mm 0.0 W/m2 CLR
01:25 0.6 °C -3.4 °C 1014.4 hPa Calm     75 % 0.0 mm 0.0 W/m2 CLR
01:30 0.6 °C -3.4 °C 1014.4 hPa Calm     75 % 0.0 mm 0.0 W/m2 CLR
01:35 0.6 °C -3.2 °C 1014.1 hPa Calm     76 % 0.0 mm 0.0 W/m2 CLR
01:40 0.6 °C -3.4 °C 1014.1 hPa Calm     75 % 0.0 mm 0.0 W/m2 CLR
01:55 0.0 °C -4.1 °C 1014.1 hPa Calm     74 % 0.0 mm 0.0 W/m2 CLR
02:00 0.0 °C -3.9 °C 1013.8 hPa Calm     75 % 0.0 mm 0.0 W/m2 CLR
02:05 0.0 °C -3.9 °C 1013.8 hPa Calm     75 % 0.0 mm 0.0 W/m2 CLR
02:10 0.0 °C -3.9 °C 1013.8 hPa Calm     75 % 0.0 mm 0.0 W/m2 CLR
02:15 0.0 °C -3.9 °C 1013.8 hPa Calm     75 % 0.0 mm 0.0 W/m2 CLR
02:20 0.0 °C -4.1 °C 1013.8 hPa Calm     74 % 0.0 mm 0.0 W/m2 CLR
02:25 0.0 °C -3.9 °C 1013.8 hPa Calm     75 % 0.0 mm 0.0 W/m2 CLR
02:30 0.0 °C -3.9 °C 1013.4 hPa Calm     75 % 0.0 mm 0.0 W/m2 CLR
02:40 -0.6 °C -4.3 °C 1013.4 hPa Calm     76 % 0.0 mm 0.0 W/m2 CLR
02:50 0.0 °C -3.7 °C 1013.4 hPa Calm     76 % 0.0 mm 0.0 W/m2 CLR
03:00 0.0 °C -4.1 °C 1013.4 hPa Calm     74 % 0.0 mm 0.0 W/m2 CLR
03:05 0.0 °C -4.1 °C 1013.4 hPa Calm     74 % 0.0 mm 0.0 W/m2 CLR
03:10 0.0 °C -4.3 °C 1013.1 hPa Calm     73 % 0.0 mm 0.0 W/m2 CLR
03:15 0.0 °C -4.1 °C 1013.1 hPa Calm     74 % 0.0 mm 0.0 W/m2 CLR
03:20 0.0 °C -3.9 °C 1013.1 hPa Calm     75 % 0.0 mm 0.0 W/m2 CLR
03:25 0.0 °C -3.9 °C 1013.1 hPa Calm     75 % 0.0 mm 0.0 W/m2 CLR
03:30 0.0 °C -4.1 °C 1012.8 hPa Calm     74 % 0.0 mm 0.0 W/m2 CLR
03:35 0.0 °C -4.1 °C 1012.8 hPa Calm     74 % 0.0 mm 0.0 W/m2 CLR
03:40 0.0 °C -4.1 °C 1012.8 hPa Calm     74 % 0.0 mm 0.0 W/m2 CLR
03:45 0.0 °C -4.1 °C 1012.8 hPa Calm     74 % 0.0 mm 0.0 W/m2 CLR
03:50 0.0 °C -4.1 °C 1012.8 hPa Calm     74 % 0.0 mm 0.0 W/m2 CLR
03:55 0.0 °C -3.9 °C 1012.8 hPa Calm     75 % 0.0 mm 0.0 W/m2 CLR
04:00 0.0 °C -3.9 °C 1012.8 hPa Calm     75 % 0.0 mm 0.0 W/m2 CLR
04:05 0.0 °C -3.9 °C 1012.8 hPa Calm     75 % 0.0 mm 0.0 W/m2 CLR
04:11 0.0 °C -3.9 °C 1012.4 hPa Calm     75 % 0.0 mm 0.0 W/m2 CLR
04:18 0.0 °C -3.9 °C 1012.4 hPa Calm     75 % 0.0 mm 0.0 W/m2 CLR
04:19 0.0 °C -3.9 °C 1012.4 hPa Calm     75 % 0.0 mm 0.0 W/m2 CLR
04:22 0.0 °C -4.1 °C 1012.4 hPa Calm     74 % 0.0 mm 0.0 W/m2 CLR
04:24 0.0 °C -3.9 °C 1012.4 hPa Calm     75 % 0.0 mm 0.0 W/m2 CLR
04:26 -0.6 °C -4.4 °C 1012.4 hPa Calm     75 % 0.0 mm 0.0 W/m2 CLR
04:28 -0.6 °C -4.4 °C 1012.4 hPa Calm     75 % 0.0 mm 0.0 W/m2 CLR
04:31 -0.6 °C -4.4 °C 1012.4 hPa Calm     75 % 0.0 mm 0.0 W/m2 CLR
04:36 -0.6 °C -4.6 °C 1012.4 hPa Calm     74 % 0.0 mm 0.0 W/m2 CLR
04:51 -0.6 °C -4.6 °C 1012.1 hPa Calm     74 % 0.0 mm 0.0 W/m2 CLR
04:56 -0.6 °C -4.6 °C 1012.1 hPa Calm     74 % 0.0 mm 0.0 W/m2 CLR
05:06 -0.6 °C -4.6 °C 1012.1 hPa Calm     74 % 0.0 mm 0.0 W/m2 CLR
05:16 -0.6 °C -4.6 °C 1012.1 hPa Calm     74 % 0.0 mm 0.0 W/m2 CLR
05:21 -0.6 °C -4.8 °C 1011.7 hPa Calm     73 % 0.0 mm 0.0 W/m2 CLR
05:26 -1.1 °C -5.5 °C 1012.1 hPa Calm     72 % 0.0 mm 0.0 W/m2 CLR
05:31 -1.1 °C -5.5 °C 1012.1 hPa Calm     72 % 0.0 mm 0.0 W/m2 CLR
05:41 -1.1 °C -5.7 °C 1011.7 hPa Calm     71 % 0.0 mm 0.0 W/m2 CLR
05:46 -1.1 °C -5.7 °C 1011.7 hPa Calm     71 % 0.0 mm 0.0 W/m2 CLR
05:51 -1.1 °C -5.5 °C 1011.7 hPa Calm     72 % 0.0 mm 0.0 W/m2 CLR
05:56 -1.7 °C -6.1 °C 1011.7 hPa Calm     72 % 0.0 mm 0.0 W/m2 CLR
06:01 -1.7 °C -6.1 °C 1011.7 hPa Calm     72 % 0.0 mm 0.0 W/m2 CLR
06:06 -1.7 °C -5.9 °C 1011.7 hPa Calm     73 % 0.0 mm 0.0 W/m2 CLR
06:11 -1.7 °C -5.9 °C 1011.7 hPa Calm     73 % 0.0 mm 0.0 W/m2 CLR
06:16 -1.7 °C -5.9 °C 1011.7 hPa Calm     73 % 0.0 mm 0.0 W/m2 CLR
06:36 -2.2 °C -6.2 °C 1011.7 hPa Calm     74 % 0.0 mm 0.0 W/m2 CLR
06:46 -1.7 °C -5.9 °C 1011.7 hPa WNW 8.0 km/h 8.0 km/h 73 % 0.0 mm 0.0 W/m2 CLR
06:51 -1.7 °C -5.9 °C 1011.4 hPa WNW 14.8 km/h 14.8 km/h 73 % 0.0 mm 0.0 W/m2 CLR
06:56 -1.1 °C -5.9 °C 1011.4 hPa WNW 18.5 km/h 18.5 km/h 70 % 0.0 mm 0.0 W/m2 CLR
07:11 -1.1 °C -6.4 °C 1011.4 hPa NW 14.8 km/h 14.8 km/h 67 % 0.0 mm 0.0 W/m2 CLR
07:16 -1.1 °C -6.4 °C 1011.4 hPa NW 18.5 km/h 18.5 km/h 67 % 0.0 mm 0.0 W/m2 CLR
07:21 -1.7 °C -6.8 °C 1011.4 hPa NW 16.7 km/h 16.7 km/h 68 % 0.0 mm 0.0 W/m2 CLR
07:26 -1.7 °C -6.8 °C 1011.4 hPa NW 18.5 km/h 18.5 km/h 68 % 0.0 mm 0.0 W/m2 CLR
07:42 -2.2 °C -6.8 °C 1011.1 hPa NW 14.8 km/h 14.8 km/h 71 % 0.0 mm 0.0 W/m2 CLR
07:47 -2.2 °C -6.6 °C 1011.4 hPa WNW 18.5 km/h 18.5 km/h 72 % 0.0 mm 0.0 W/m2 CLR
07:52 -2.2 °C -6.4 °C 1011.4 hPa NW 22.2 km/h 22.2 km/h 73 % 0.0 mm 0.0 W/m2 CLR
08:12 2.8 °C -1.4 °C 1011.1 hPa WNW 24.1 km/h 24.1 km/h 74 % 0.0 mm 5.0 W/m2 OVC
08:17 3.9 °C -0.3 °C 1011.4 hPa NW 25.9 km/h 25.9 km/h 74 % 0.0 mm 7.0 W/m2 OVC
08:22 5.0 °C 0.7 °C 1011.4 hPa NW 22.5 km/h 22.5 km/h 74 % 0.0 mm 7.0 W/m2 BKN
08:27 5.0 °C 0.9 °C 1011.4 hPa NW 18.5 km/h 18.5 km/h 75 % 0.0 mm 9.0 W/m2 BKN
08:32 5.0 °C 0.9 °C 1011.4 hPa NW 18.5 km/h 18.5 km/h 75 % 0.0 mm 11.0 W/m2 BKN
08:37 5.0 °C 1.1 °C 1011.4 hPa WNW 24.1 km/h 24.1 km/h 76 % 0.0 mm 12.0 W/m2 BKN
08:42 5.0 °C 1.1 °C 1011.4 hPa NW 19.3 km/h 19.3 km/h 76 % 0.0 mm 14.0 W/m2 BKN
08:47 5.6 °C 1.7 °C 1011.7 hPa NW 22.2 km/h 22.2 km/h 76 % 0.0 mm 19.0 W/m2 BKN
08:52 5.6 °C 1.7 °C 1011.7 hPa WNW 18.5 km/h 18.5 km/h 76 % 0.0 mm 23.0 W/m2 BKN
08:57 5.6 °C 1.7 °C 1011.7 hPa NW 16.7 km/h 16.7 km/h 76 % 0.0 mm 37.0 W/m2 BKN
09:02 5.6 °C 1.4 °C 1011.7 hPa WNW 16.7 km/h 16.7 km/h 75 % 0.0 mm 60.0 W/m2 SCT
09:07 5.6 °C 1.4 °C 1011.7 hPa WNW 18.5 km/h 18.5 km/h 75 % 0.0 mm 77.0 W/m2 SCT
09:12 6.1 °C 2.0 °C 1012.1 hPa NW 20.4 km/h 20.4 km/h 75 % 0.0 mm 95.0 W/m2 FEW
09:17 6.1 °C 1.8 °C 1012.1 hPa WNW 18.5 km/h 18.5 km/h 74 % 0.0 mm 120.0 W/m2 CLR
09:27 6.7 °C 2.2 °C 1012.1 hPa West 22.2 km/h 22.2 km/h 73 % 0.0 mm 134.0 W/m2 CLR
09:32 6.7 °C 2.0 °C 1012.1 hPa WNW 22.2 km/h 22.2 km/h 72 % 0.0 mm 153.0 W/m2 CLR
09:37 7.2 °C 2.5 °C 1012.1 hPa WNW 18.5 km/h 18.5 km/h 72 % 0.0 mm 178.0 W/m2 CLR
09:47 7.2 °C 2.3 °C 1012.1 hPa NW 24.1 km/h 24.1 km/h 71 % 0.0 mm 156.0 W/m2 CLR
09:52 7.8 °C 2.8 °C 1012.1 hPa NNW 24.1 km/h 24.1 km/h 71 % 0.0 mm 220.0 W/m2 CLR
10:07 7.8 °C 2.4 °C 1012.1 hPa NW 25.9 km/h 25.9 km/h 69 % 0.0 mm 260.0 W/m2 CLR
10:17 8.3 °C 3.0 °C 1012.1 hPa NNW 20.4 km/h 20.4 km/h 69 % 0.0 mm 279.0 W/m2 CLR
10:32 8.3 °C 2.8 °C 1012.1 hPa NNW 27.4 km/h 27.4 km/h 68 % 0.0 mm 309.0 W/m2 CLR
10:42 8.9 °C 3.5 °C 1012.1 hPa North 20.4 km/h 20.4 km/h 69 % 0.0 mm 325.0 W/m2 CLR
10:47 8.9 °C 3.3 °C 1012.1 hPa NNW 27.8 km/h 27.8 km/h 68 % 0.0 mm 339.0 W/m2 CLR
10:52 8.9 °C 3.3 °C 1012.1 hPa NW 13.0 km/h 13.0 km/h 68 % 0.0 mm 346.0 W/m2 CLR
10:57 8.9 °C 3.1 °C 1012.1 hPa NNW 31.5 km/h 31.5 km/h 67 % 0.0 mm 355.0 W/m2 CLR
11:02 8.9 °C 3.1 °C 1012.1 hPa NNW 29.0 km/h 29.0 km/h 67 % 0.0 mm 355.0 W/m2 CLR
11:12 9.4 °C 3.4 °C 1012.1 hPa North 31.5 km/h 31.5 km/h 66 % 0.0 mm 388.0 W/m2 CLR
11:17 9.4 °C 3.2 °C 1012.1 hPa NNW 22.2 km/h 22.2 km/h 65 % 0.0 mm 93.0 W/m2 CLR
11:22 9.4 °C 3.2 °C 1012.1 hPa North 24.1 km/h 24.1 km/h 65 % 0.0 mm 415.0 W/m2 CLR
11:32 10.0 °C 3.5 °C 1012.1 hPa NNE 22.5 km/h 22.5 km/h 64 % 0.0 mm 91.0 W/m2 CLR
11:37 9.4 °C 2.9 °C 1012.1 hPa NNW 20.4 km/h 20.4 km/h 64 % 0.0 mm 60.0 W/m2 FEW
11:47 9.4 °C 2.9 °C 1011.7 hPa NNW 25.9 km/h 25.9 km/h 64 % 0.0 mm 443.0 W/m2 CLR
11:57 10.0 °C 3.3 °C 1011.7 hPa NNW 31.5 km/h 31.5 km/h 63 % 0.0 mm 79.0 W/m2 CLR
12:02 9.4 °C 2.9 °C 1011.7 hPa North 33.3 km/h 33.3 km/h 64 % 0.0 mm 468.0 W/m2 CLR
12:12 10.0 °C 3.1 °C 1011.4 hPa NNW 27.8 km/h 27.8 km/h 62 % 0.0 mm 489.0 W/m2 CLR
12:17 10.0 °C 3.1 °C 1011.4 hPa NW 29.6 km/h 29.6 km/h 62 % 0.0 mm 476.0 W/m2 CLR
12:22 10.0 °C 3.1 °C 1011.4 hPa NW 31.5 km/h 31.5 km/h 62 % 0.0 mm 522.0 W/m2 CLR
12:27 10.6 °C 3.6 °C 1011.4 hPa North 16.1 km/h 16.1 km/h 62 % 0.0 mm 531.0 W/m2 CLR
12:37 11.1 °C 3.4 °C 1011.1 hPa NNW 29.6 km/h 29.6 km/h 59 % 0.0 mm 475.0 W/m2 CLR
12:42 11.1 °C 3.4 °C 1011.1 hPa NNW 19.3 km/h 19.3 km/h 59 % 0.0 mm 468.0 W/m2 CLR
13:02 10.6 °C 2.4 °C 1010.7 hPa North 42.6 km/h 42.6 km/h 57 % 0.0 mm 461.0 W/m2 CLR
13:07 10.6 °C 2.4 °C 1010.7 hPa North 25.9 km/h 25.9 km/h 57 % 0.0 mm 452.0 W/m2 CLR
13:12 11.1 °C 2.9 °C 1010.7 hPa North 32.2 km/h 32.2 km/h 57 % 0.0 mm 452.0 W/m2 CLR
13:17 11.1 °C 2.7 °C 1010.7 hPa North 31.5 km/h 31.5 km/h 56 % 0.0 mm 445.0 W/m2 CLR
13:22 11.1 °C 2.7 °C 1010.4 hPa North 31.5 km/h 31.5 km/h 56 % 0.0 mm 443.0 W/m2 CLR
13:27 11.1 °C 2.2 °C 1010.4 hPa NNW 29.6 km/h 29.6 km/h 54 % 0.0 mm 441.0 W/m2 CLR
13:32 11.1 °C 2.2 °C 1010.7 hPa NW 33.3 km/h 33.3 km/h 54 % 0.0 mm 439.0 W/m2 CLR
13:37 11.7 °C 2.9 °C 1010.4 hPa North 27.8 km/h 27.8 km/h 55 % 0.0 mm 436.0 W/m2 CLR
13:47 11.7 °C 2.9 °C 1010.4 hPa North 38.9 km/h 38.9 km/h 55 % 0.0 mm 424.0 W/m2 CLR
13:58 11.7 °C 2.9 °C 1010.0 hPa North 27.8 km/h 27.8 km/h 55 % 0.0 mm 417.0 W/m2 CLR
14:03 11.7 °C 2.7 °C 1010.0 hPa NW 31.5 km/h 31.5 km/h 54 % 0.0 mm 413.0 W/m2 CLR
14:08 12.2 °C 2.9 °C 1010.0 hPa North 27.8 km/h 27.8 km/h 53 % 0.0 mm 404.0 W/m2 CLR
14:13 11.7 °C 2.4 °C 1010.4 hPa NNW 33.3 km/h 33.3 km/h 53 % 0.0 mm 397.0 W/m2 CLR
14:23 11.7 °C 2.7 °C 1010.0 hPa North 25.7 km/h 25.7 km/h 54 % 0.0 mm 383.0 W/m2 CLR
14:28 11.7 °C 2.4 °C 1010.0 hPa North 35.2 km/h 35.2 km/h 53 % 0.0 mm 380.0 W/m2 CLR
14:38 11.7 °C 2.1 °C 1010.0 hPa North 31.5 km/h 31.5 km/h 52 % 0.0 mm 353.0 W/m2 CLR
14:48 12.2 °C 2.7 °C 1010.0 hPa North 37.0 km/h 37.0 km/h 52 % 0.0 mm 348.0 W/m2 CLR
14:53 12.2 °C 2.9 °C 1010.0 hPa NNW 31.5 km/h 31.5 km/h 53 % 0.0 mm 338.0 W/m2 CLR
14:58 12.2 °C 2.9 °C 1010.0 hPa NNE 32.2 km/h 32.2 km/h 53 % 0.0 mm 329.0 W/m2 CLR
15:03 11.7 °C 2.4 °C 1010.0 hPa North 31.5 km/h 31.5 km/h 53 % 0.0 mm 322.0 W/m2 CLR
15:08 11.7 °C 2.4 °C 1010.0 hPa North 35.4 km/h 35.4 km/h 53 % 0.0 mm 313.0 W/m2 CLR
15:13 11.7 °C 2.1 °C 1010.0 hPa NNW 37.0 km/h 37.0 km/h 52 % 0.0 mm 301.0 W/m2 CLR
15:18 11.7 °C 2.1 °C 1010.0 hPa North 25.9 km/h 25.9 km/h 52 % 0.0 mm 288.0 W/m2 CLR
15:28 11.7 °C 1.8 °C 1010.0 hPa North 27.8 km/h 27.8 km/h 51 % 0.0 mm 265.0 W/m2 CLR
15:38 11.7 °C 1.8 °C 1010.0 hPa NNW 35.2 km/h 35.2 km/h 51 % 0.0 mm 244.0 W/m2 CLR
15:43 11.7 °C 2.1 °C 1010.0 hPa North 30.6 km/h 30.6 km/h 52 % 0.0 mm 229.0 W/m2 CLR
15:48 11.7 °C 2.4 °C 1010.4 hPa North 31.5 km/h 31.5 km/h 53 % 0.0 mm 214.0 W/m2 CLR
15:53 11.1 °C 1.9 °C 1010.4 hPa North 35.2 km/h 35.2 km/h 53 % 0.0 mm 202.0 W/m2 CLR
15:58 11.1 °C 1.9 °C 1010.4 hPa North 27.8 km/h 27.8 km/h 53 % 0.0 mm 185.0 W/m2 CLR
16:03 10.6 °C 1.4 °C 1010.4 hPa NNW 29.6 km/h 29.6 km/h 53 % 0.0 mm 167.0 W/m2 CLR
16:13 10.6 °C 1.6 °C 1010.4 hPa NNW 35.2 km/h 35.2 km/h 54 % 0.0 mm 144.0 W/m2 CLR
16:18 10.6 °C 1.6 °C 1010.7 hPa North 35.2 km/h 35.2 km/h 54 % 0.0 mm 81.0 W/m2 CLR
16:23 10.6 °C 1.9 °C 1010.7 hPa North 29.6 km/h 29.6 km/h 55 % 0.0 mm 114.0 W/m2 CLR
16:29 10.6 °C 1.9 °C 1010.7 hPa North 24.1 km/h 24.1 km/h 55 % 0.0 mm 100.0 W/m2 CLR
16:34 10.0 °C 1.4 °C 1010.7 hPa North 22.2 km/h 22.2 km/h 55 % 0.0 mm 90.0 W/m2 CLR
16:39 10.0 °C 1.4 °C 1010.7 hPa NNW 31.5 km/h 31.5 km/h 55 % 0.0 mm 74.0 W/m2 FEW
16:44 10.0 °C 1.6 °C 1010.7 hPa NNW 31.5 km/h 31.5 km/h 56 % 0.0 mm 23.0 W/m2 BKN
16:59 9.4 °C 1.1 °C 1010.7 hPa North 27.4 km/h 27.4 km/h 56 % 0.0 mm 33.0 W/m2 BKN
17:04 9.4 °C 1.3 °C 1010.7 hPa NNW 31.5 km/h 31.5 km/h 57 % 0.0 mm 21.0 W/m2 BKN
17:14 8.9 °C 1.1 °C 1010.7 hPa NW 20.4 km/h 20.4 km/h 58 % 0.0 mm 12.0 W/m2 BKN
17:19 8.9 °C 1.3 °C 1011.1 hPa NW 22.2 km/h 22.2 km/h 59 % 0.0 mm 11.0 W/m2 BKN
17:24 8.9 °C 1.3 °C 1011.1 hPa NW 22.2 km/h 22.2 km/h 59 % 0.0 mm 9.0 W/m2 BKN
17:29 8.9 °C 1.6 °C 1011.1 hPa NNW 19.3 km/h 19.3 km/h 60 % 0.0 mm 5.0 W/m2 BKN
17:34 8.3 °C 1.0 °C 1011.1 hPa NW 16.7 km/h 16.7 km/h 60 % 0.0 mm 5.0 W/m2 OVC
17:39 8.3 °C 1.2 °C 1011.1 hPa NNW 18.5 km/h 18.5 km/h 61 % 0.0 mm 0.0 W/m2 OVC
17:44 8.3 °C 1.2 °C 1011.1 hPa NNW 14.8 km/h 14.8 km/h 61 % 0.0 mm 0.0 W/m2 CLR
17:49 8.3 °C 1.4 °C 1011.1 hPa NW 14.8 km/h 14.8 km/h 62 % 0.0 mm 0.0 W/m2 CLR
17:54 7.8 °C 0.9 °C 1011.4 hPa NNW 16.7 km/h 16.7 km/h 62 % 0.0 mm 0.0 W/m2 CLR
17:59 7.8 °C 0.9 °C 1011.4 hPa NNW 16.7 km/h 16.7 km/h 62 % 0.0 mm 0.0 W/m2 CLR
18:09 7.8 °C 0.9 °C 1011.4 hPa NNW 18.5 km/h 18.5 km/h 62 % 0.0 mm 0.0 W/m2 CLR
18:14 7.8 °C 1.2 °C 1011.4 hPa NNW 24.1 km/h 24.1 km/h 63 % 0.0 mm 0.0 W/m2 CLR
18:17 7.8 °C 1.2 °C 1011.7 hPa NNW 29.6 km/h 29.6 km/h 63 % 0.0 mm 0.0 W/m2 CLR
18:22 7.8 °C 1.2 °C 1011.7 hPa NNW 22.2 km/h 22.2 km/h 63 % 0.0 mm 0.0 W/m2 CLR
18:32 7.8 °C 1.4 °C 1011.7 hPa NW 22.2 km/h 22.2 km/h 64 % 0.0 mm 0.0 W/m2 CLR
18:37 7.8 °C 1.4 °C 1011.7 hPa NW 27.8 km/h 27.8 km/h 64 % 0.0 mm 0.0 W/m2 CLR
18:42 7.8 °C 1.4 °C 1011.7 hPa NW 25.9 km/h 25.9 km/h 64 % 0.0 mm 0.0 W/m2 CLR
18:47 7.8 °C 1.4 °C 1012.1 hPa NNW 27.8 km/h 27.8 km/h 64 % 0.0 mm 0.0 W/m2 CLR
18:52 7.8 °C 1.4 °C 1012.1 hPa NW 20.4 km/h 20.4 km/h 64 % 0.0 mm 0.0 W/m2 CLR
18:57 7.8 °C 1.4 °C 1012.1 hPa NW 25.9 km/h 25.9 km/h 64 % 0.0 mm 0.0 W/m2 CLR
19:03 7.8 °C 1.4 °C 1012.4 hPa NW 25.9 km/h 25.9 km/h 64 % 0.0 mm 0.0 W/m2 CLR
19:08 7.8 °C 1.4 °C 1012.4 hPa NW 16.7 km/h 16.7 km/h 64 % 0.0 mm 0.0 W/m2 CLR
19:13 7.8 °C 1.4 °C 1012.4 hPa NW 27.8 km/h 27.8 km/h 64 % 0.0 mm 0.0 W/m2 CLR
19:18 7.2 °C 1.1 °C 1012.4 hPa NW 25.9 km/h 25.9 km/h 65 % 0.0 mm 0.0 W/m2 CLR
19:23 7.2 °C 1.1 °C 1012.4 hPa WNW 24.1 km/h 24.1 km/h 65 % 0.0 mm 0.0 W/m2 CLR
19:28 7.2 °C 1.1 °C 1012.8 hPa NW 24.1 km/h 24.1 km/h 65 % 0.0 mm 0.0 W/m2 CLR
19:33 7.2 °C 1.1 °C 1012.8 hPa NW 24.1 km/h 24.1 km/h 65 % 0.0 mm 0.0 W/m2 CLR
19:48 6.7 °C 0.8 °C 1012.8 hPa NW 22.2 km/h 22.2 km/h 66 % 0.0 mm 0.0 W/m2 CLR
19:53 6.7 °C 0.9 °C 1012.8 hPa NW 22.2 km/h 22.2 km/h 67 % 0.0 mm 0.0 W/m2 CLR
20:03 6.7 °C 0.9 °C 1013.1 hPa NW 18.5 km/h 18.5 km/h 67 % 0.0 mm 0.0 W/m2 CLR
20:18 6.7 °C 1.2 °C 1013.1 hPa NNW 19.3 km/h 19.3 km/h 68 % 0.0 mm 0.0 W/m2 CLR
20:23 6.7 °C 1.2 °C 1013.1 hPa NW 20.4 km/h 20.4 km/h 68 % 0.0 mm 0.0 W/m2 CLR
20:28 6.1 °C 0.7 °C 1013.1 hPa NW 20.9 km/h 20.9 km/h 68 % 0.0 mm 0.0 W/m2 CLR
20:43 6.1 °C 0.7 °C 1013.1 hPa NW 18.5 km/h 18.5 km/h 68 % 0.0 mm 0.0 W/m2 CLR
20:48 6.7 °C 1.2 °C 1013.1 hPa WNW 24.1 km/h 24.1 km/h 68 % 0.0 mm 0.0 W/m2 CLR
20:53 6.1 °C 0.7 °C 1013.1 hPa NW 18.5 km/h 18.5 km/h 68 % 0.0 mm 0.0 W/m2 CLR
20:58 6.1 °C 0.7 °C 1013.1 hPa NW 24.1 km/h 24.1 km/h 68 % 0.0 mm 0.0 W/m2 CLR
21:03 6.1 °C 0.7 °C 1013.1 hPa NW 24.1 km/h 24.1 km/h 68 % 0.0 mm 0.0 W/m2 CLR
21:13 6.1 °C 0.4 °C 1013.1 hPa NW 27.8 km/h 27.8 km/h 67 % 0.0 mm 0.0 W/m2 CLR
21:18 6.1 °C 0.7 °C 1012.8 hPa West 25.9 km/h 25.9 km/h 68 % 0.0 mm 0.0 W/m2 CLR
21:23 6.1 °C 0.7 °C 1012.8 hPa WNW 25.9 km/h 25.9 km/h 68 % 0.0 mm 0.0 W/m2 CLR
21:28 6.1 °C 0.7 °C 1012.8 hPa NW 33.3 km/h 33.3 km/h 68 % 0.0 mm 0.0 W/m2 CLR
21:33 6.1 °C 0.7 °C 1012.8 hPa NW 31.5 km/h 31.5 km/h 68 % 0.0 mm 0.0 W/m2 CLR
21:38 6.1 °C 0.7 °C 1012.8 hPa NW 27.8 km/h 27.8 km/h 68 % 0.0 mm 0.0 W/m2 CLR
21:43 6.1 °C 0.4 °C 1013.1 hPa NW 31.5 km/h 31.5 km/h 67 % 0.0 mm 0.0 W/m2 CLR
21:48 6.1 °C 0.4 °C 1013.1 hPa WNW 32.2 km/h 32.2 km/h 67 % 0.0 mm 0.0 W/m2 CLR
21:53 6.1 °C 0.2 °C 1013.1 hPa WNW 22.2 km/h 22.2 km/h 66 % 0.0 mm 0.0 W/m2 CLR
22:03 6.1 °C 0.4 °C 1013.4 hPa NW 27.8 km/h 27.8 km/h 67 % 0.0 mm 0.0 W/m2 CLR
22:13 5.6 °C -0.1 °C 1013.4 hPa WNW 31.5 km/h 31.5 km/h 67 % 0.0 mm 0.0 W/m2 CLR
22:19 5.6 °C -0.1 °C 1013.4 hPa WNW 25.9 km/h 25.9 km/h 67 % 0.0 mm 0.0 W/m2 CLR
22:24 5.6 °C -0.1 °C 1013.4 hPa West 29.0 km/h 29.0 km/h 67 % 0.0 mm 0.0 W/m2 CLR
22:29 5.6 °C -0.1 °C 1013.4 hPa NW 27.8 km/h 27.8 km/h 67 % 0.0 mm 0.0 W/m2 CLR
22:39 5.6 °C -0.1 °C 1013.4 hPa WNW 18.5 km/h 18.5 km/h 67 % 0.0 mm 0.0 W/m2 CLR
22:44 5.6 °C 0.1 °C 1013.4 hPa NW 24.1 km/h 24.1 km/h 68 % 0.0 mm 0.0 W/m2 CLR
22:46 5.6 °C 0.1 °C 1013.4 hPa WNW 27.8 km/h 27.8 km/h 68 % 0.0 mm 0.0 W/m2 CLR
22:51 5.6 °C 0.1 °C 1013.4 hPa WNW 20.4 km/h 20.4 km/h 68 % 0.0 mm 0.0 W/m2 CLR
22:56 5.0 °C -0.4 °C 1013.8 hPa NW 22.2 km/h 22.2 km/h 68 % 0.0 mm 0.0 W/m2 CLR
23:01 5.0 °C -0.2 °C 1013.4 hPa North 22.2 km/h 22.2 km/h 69 % 0.0 mm 0.0 W/m2 CLR
23:06 5.0 °C -0.2 °C 1013.8 hPa WNW 27.8 km/h 27.8 km/h 69 % 0.0 mm 0.0 W/m2 CLR
23:21 5.0 °C 0.0 °C 1013.8 hPa NW 24.1 km/h 24.1 km/h 70 % 0.0 mm 0.0 W/m2 CLR
23:26 5.0 °C 0.0 °C 1013.8 hPa NNW 18.5 km/h 18.5 km/h 70 % 0.0 mm 0.0 W/m2 CLR
23:31 4.4 °C -0.6 °C 1013.8 hPa NW 18.5 km/h 18.5 km/h 70 % 0.0 mm 0.0 W/m2 CLR
23:36 5.0 °C 0.2 °C 1013.8 hPa NW 25.7 km/h 25.7 km/h 71 % 0.0 mm 0.0 W/m2 CLR
23:41 5.0 °C 0.2 °C 1013.8 hPa NW 25.9 km/h 25.9 km/h 71 % 0.0 mm 0.0 W/m2 CLR
23:52 5.0 °C 0.4 °C 1013.8 hPa NW 35.2 km/h 35.2 km/h 72 % 0.0 mm 0.0 W/m2 CLR
23:57 5.0 °C 0.4 °C 1013.8 hPa NNW 29.6 km/h 29.6 km/h 72 % 0.0 mm 0.0 W/m2 CLR
Lo Temps de Massalio
Compliments of Weather Underground - 1 mb